createdAt,value
2018-05-26T00:00:13.042Z,93.61
2018-05-26T00:02:42.097Z,94.25
2018-05-26T00:05:11.155Z,91.37
2018-05-26T00:07:40.206Z,90.99
2018-05-26T00:10:09.272Z,90.69
2018-05-26T00:12:38.313Z,90.44
2018-05-26T00:15:07.522Z,91.80
2018-05-26T00:17:36.922Z,91.21
2018-05-26T00:25:21.405Z,90.39
2018-05-26T00:30:27.298Z,91.82
2018-05-26T00:32:56.350Z,91.53
2018-05-26T00:35:25.423Z,92.26
2018-05-26T00:37:54.489Z,93.76
2018-05-26T00:40:23.604Z,95.34
2018-05-26T00:42:52.644Z,95.07
2018-05-26T00:45:21.736Z,92.52
2018-05-26T00:50:28.537Z,92.51
2018-05-26T00:52:57.655Z,93.60
2018-05-26T00:55:27.626Z,93.14
2018-05-26T00:57:56.788Z,93.65
2018-05-26T01:00:27.987Z,93.71
2018-05-26T01:02:57.046Z,92.86
2018-05-26T01:05:26.147Z,94.22
2018-05-26T01:07:55.305Z,93.32
2018-05-26T01:10:25.374Z,95.62
2018-05-26T01:12:54.453Z,97.82
2018-05-26T01:17:59.361Z,99.63
2018-05-26T01:20:28.428Z,97.01
2018-05-26T01:22:57.487Z,96.85
2018-05-26T01:25:26.735Z,95.50
2018-05-26T01:27:55.922Z,95.19
2018-05-26T01:30:25.871Z,94.63
2018-05-26T01:32:54.925Z,93.31
2018-05-26T01:35:23.994Z,93.78
2018-05-26T01:37:53.285Z,94.21
2018-05-26T01:40:27.461Z,95.45
2018-05-26T01:42:56.532Z,94.63
2018-05-26T01:45:28.606Z,94.48
2018-05-26T01:47:57.669Z,97.00
2018-05-26T01:50:27.844Z,95.08
2018-05-26T01:52:56.889Z,93.59
2018-05-26T01:55:26.049Z,93.57
2018-05-26T01:57:55.105Z,93.96
2018-05-26T02:00:24.223Z,93.69
2018-05-26T02:02:53.344Z,96.60
2018-05-26T02:07:58.173Z,94.23
2018-05-26T02:14:08.691Z,93.60
2018-05-26T02:16:45.505Z,93.27
2018-05-26T02:19:16.841Z,93.58
2018-05-26T02:21:45.870Z,93.77
2018-05-26T02:24:15.818Z,93.94
2018-05-26T02:29:21.375Z,93.96
2018-05-26T02:31:50.442Z,93.33
2018-05-26T02:36:55.178Z,94.31
2018-05-26T02:42:00.170Z,94.82
2018-05-26T02:44:36.991Z,94.38
2018-05-26T02:47:08.110Z,94.43
2018-05-26T02:49:37.222Z,94.34
2018-05-26T02:54:52.861Z,94.03
2018-05-26T02:57:35.242Z,96.17
2018-05-26T03:00:04.482Z,97.96
2018-05-26T03:07:52.721Z,94.43
2018-05-26T03:10:27.199Z,94.69
2018-05-26T03:13:01.778Z,96.27
2018-05-26T03:15:34.370Z,95.34
2018-05-26T03:18:10.826Z,95.16
2018-05-26T03:20:47.094Z,97.86
2018-05-26T03:23:24.965Z,97.46
2018-05-26T03:25:54.035Z,97.29
2018-05-26T03:28:26.577Z,97.57
2018-05-26T03:30:56.579Z,96.64
2018-05-26T03:33:30.358Z,98.61
2018-05-26T03:36:00.326Z,100.00
2018-05-26T03:38:29.470Z,98.59
2018-05-26T03:40:58.753Z,99.51
2018-05-26T03:43:27.805Z,98.07
2018-05-26T03:45:56.895Z,97.30
2018-05-26T03:48:29.164Z,98.25
2018-05-26T03:50:58.429Z,98.54
2018-05-26T03:53:32.608Z,97.31
2018-05-26T03:56:19.469Z,97.47
2018-05-26T03:59:07.105Z,98.55
2018-05-26T04:01:36.198Z,97.99
2018-05-26T04:04:05.323Z,97.08
2018-05-26T04:06:42.465Z,96.83
2018-05-26T04:09:20.181Z,96.77
2018-05-26T04:11:49.388Z,99.91
2018-05-26T04:14:19.299Z,100.00
2018-05-26T04:16:48.350Z,100.00
2018-05-26T04:19:19.391Z,99.20
2018-05-26T04:21:49.162Z,98.49
2018-05-26T04:24:20.498Z,97.93
2018-05-26T04:26:49.549Z,97.89
2018-05-26T04:31:54.826Z,95.26
2018-05-26T04:34:25.838Z,94.88
2018-05-26T04:36:55.220Z,97.43
2018-05-26T04:39:27.252Z,99.11
2018-05-26T04:41:56.325Z,99.29
2018-05-26T04:44:29.805Z,99.32
2018-05-26T04:46:58.875Z,98.35
2018-05-26T04:49:32.581Z,96.99
2018-05-26T04:52:01.653Z,97.42
2018-05-26T04:54:31.556Z,95.93
2018-05-26T04:57:00.622Z,97.13
2018-05-26T04:59:31.697Z,96.63
2018-05-26T05:02:01.198Z,95.60
2018-05-26T05:04:34.572Z,95.42
2018-05-26T05:07:03.633Z,94.34
2018-05-26T05:12:09.888Z,93.76
2018-05-26T05:14:38.947Z,94.65
2018-05-26T05:17:08.068Z,95.34
2018-05-26T05:19:37.117Z,94.85
2018-05-26T05:24:41.979Z,94.17
2018-05-26T05:27:11.292Z,92.94
2018-05-26T05:29:40.475Z,93.20
2018-05-26T05:32:09.848Z,93.52
2018-05-26T05:34:39.979Z,94.14
2018-05-26T05:39:45.942Z,92.60
2018-05-26T05:42:19.493Z,94.35
2018-05-26T05:44:48.905Z,93.75
2018-05-26T05:47:22.922Z,91.13
2018-05-26T05:49:52.998Z,92.07
2018-05-26T05:52:22.042Z,92.30
2018-05-26T05:54:52.124Z,91.73
2018-05-26T05:57:22.134Z,90.88
2018-05-26T06:02:26.911Z,89.40
2018-05-26T06:04:56.443Z,89.61
2018-05-26T06:07:25.497Z,89.21
2018-05-26T06:09:54.553Z,89.06
2018-05-26T06:15:00.626Z,87.46
2018-05-26T06:17:29.614Z,87.75
2018-05-26T06:19:59.233Z,87.59
2018-05-26T06:22:28.281Z,87.10
2018-05-26T06:24:57.757Z,86.53
2018-05-26T06:27:26.825Z,85.96
2018-05-26T06:29:56.224Z,86.00
2018-05-26T06:32:25.291Z,84.80
2018-05-26T06:34:54.746Z,84.89
2018-05-26T06:37:23.802Z,85.70
2018-05-26T06:39:52.858Z,84.01
2018-05-26T06:42:22.263Z,83.58
2018-05-26T06:47:27.174Z,83.83
2018-05-26T06:49:56.206Z,82.12
2018-05-26T06:52:25.251Z,80.40
2018-05-26T06:54:54.307Z,80.17
2018-05-26T06:57:23.626Z,79.68
2018-05-26T07:05:04.338Z,82.06
2018-05-26T07:07:33.677Z,84.00
2018-05-26T07:10:02.744Z,83.46
2018-05-26T07:12:32.462Z,83.31
2018-05-26T07:15:01.550Z,84.14
2018-05-26T07:20:06.526Z,83.73
2018-05-26T07:22:36.466Z,84.72
2018-05-26T07:25:05.579Z,83.84
2018-05-26T07:27:35.129Z,84.02
2018-05-26T07:30:04.173Z,83.20
2018-05-26T07:32:33.853Z,82.27
2018-05-26T07:35:02.909Z,82.39
2018-05-26T07:37:32.062Z,79.78
2018-05-26T07:40:01.126Z,79.05
2018-05-26T07:42:30.202Z,79.48
2018-05-26T07:44:59.278Z,77.86
2018-05-26T07:47:28.297Z,78.53
2018-05-26T07:52:33.877Z,75.87
2018-05-26T07:55:02.930Z,75.46
2018-05-26T07:57:35.379Z,74.26
2018-05-26T08:00:06.099Z,75.37
2018-05-26T08:02:36.341Z,75.19
2018-05-26T08:07:41.266Z,73.31
2018-05-26T08:10:10.857Z,74.91
2018-05-26T08:12:41.267Z,73.02
2018-05-26T08:15:10.818Z,74.27
2018-05-26T08:17:40.439Z,72.32
2018-05-26T08:20:09.489Z,73.45
2018-05-26T08:22:39.616Z,72.34
2018-05-26T08:25:14.483Z,71.80
2018-05-26T08:27:43.539Z,72.11
2018-05-26T08:30:12.608Z,69.23
2018-05-26T08:32:42.182Z,69.16
2018-05-26T08:35:11.251Z,67.95
2018-05-26T08:37:40.829Z,70.72
2018-05-26T08:40:09.898Z,69.18
2018-05-26T08:42:39.293Z,68.40
2018-05-26T08:45:08.349Z,66.49
2018-05-26T08:47:37.585Z,67.84
2018-05-26T08:52:43.328Z,66.18
2018-05-26T08:55:12.341Z,66.43
2018-05-26T08:57:42.040Z,65.81
2018-05-26T09:00:11.116Z,65.15
2018-05-26T09:02:40.557Z,62.64
2018-05-26T09:05:09.600Z,64.96
2018-05-26T09:07:39.249Z,62.68
2018-05-26T09:10:08.281Z,63.61
2018-05-26T09:12:37.921Z,60.65
2018-05-26T09:15:06.969Z,59.55
2018-05-26T09:17:36.646Z,58.89
2018-05-26T09:22:41.519Z,50.97
2018-05-26T09:25:11.032Z,52.29
2018-05-26T09:27:40.044Z,46.73
2018-05-26T09:30:09.902Z,45.39
2018-05-26T09:35:15.164Z,43.17
2018-05-26T09:37:44.331Z,40.19
2018-05-26T09:42:50.054Z,41.75
2018-05-26T09:45:19.235Z,36.36
2018-05-26T09:47:49.775Z,35.42
2018-05-26T09:50:19.072Z,35.74
2018-05-26T09:52:49.409Z,36.28
2018-05-26T09:55:19.101Z,40.30
2018-05-26T09:57:49.297Z,33.92
2018-05-26T10:00:19.150Z,35.00
2018-05-26T10:02:56.425Z,35.30
2018-05-26T10:05:25.473Z,36.60
2018-05-26T10:07:56.504Z,32.80
2018-05-26T10:10:25.557Z,31.87
2018-05-26T10:12:54.767Z,31.06
2018-05-26T10:15:23.811Z,32.56
2018-05-26T10:17:53.228Z,29.98
2018-05-26T10:20:22.295Z,32.70
2018-05-26T10:22:52.165Z,32.41
2018-05-26T10:27:57.258Z,31.46
2018-05-26T10:30:26.304Z,31.42
2018-05-26T10:32:55.763Z,31.13
2018-05-26T10:35:24.793Z,30.10
2018-05-26T10:37:54.393Z,24.26
2018-05-26T10:40:23.575Z,30.14
2018-05-26T10:42:53.563Z,29.38
2018-05-26T10:45:39.467Z,30.12
2018-05-26T10:48:08.770Z,28.21
2018-05-26T10:50:37.789Z,28.28
2018-05-26T10:53:07.723Z,29.05
2018-05-26T10:55:36.765Z,27.62
2018-05-26T10:58:05.811Z,29.29
2018-05-26T11:00:34.862Z,28.46
2018-05-26T11:03:03.912Z,29.86
2018-05-26T11:05:32.953Z,29.87
2018-05-26T11:08:01.997Z,31.23
2018-05-26T11:10:32.509Z,33.06
2018-05-26T11:13:01.567Z,34.71
2018-05-26T11:15:31.336Z,33.20
2018-05-26T11:18:00.506Z,33.61
2018-05-26T11:20:29.517Z,32.98
2018-05-26T11:22:58.566Z,33.69
2018-05-26T11:25:28.136Z,32.66
2018-05-26T11:27:57.174Z,31.54
2018-05-26T11:30:26.643Z,28.71
2018-05-26T11:33:02.725Z,28.89
2018-05-26T11:35:40.884Z,27.57
2018-05-26T11:38:21.890Z,27.61
2018-05-26T11:41:01.958Z,29.22
2018-05-26T11:43:41.552Z,25.82
2018-05-26T11:46:11.386Z,25.80
2018-05-26T11:48:40.565Z,26.45
2018-05-26T11:51:09.618Z,25.54
2018-05-26T11:56:13.965Z,24.47
2018-05-26T11:58:43.960Z,24.62
2018-05-26T12:01:12.999Z,23.96
2018-05-26T12:03:42.793Z,24.88
2018-05-26T12:06:11.873Z,25.44
2018-05-26T12:08:41.693Z,24.57
2018-05-26T12:11:10.750Z,24.08
2018-05-26T12:13:39.791Z,22.27
2018-05-26T12:16:08.830Z,22.41
2018-05-26T12:18:38.351Z,24.34
2018-05-26T12:21:07.415Z,28.38
2018-05-26T12:23:36.473Z,26.38
2018-05-26T12:26:05.881Z,29.14
2018-05-26T12:28:35.211Z,28.07
2018-05-26T12:31:04.315Z,27.89
2018-05-26T12:33:34.146Z,28.77
2018-05-26T12:36:03.237Z,28.38
2018-05-26T12:38:32.890Z,26.97
2018-05-26T12:41:02.025Z,27.42
2018-05-26T12:43:31.062Z,28.96
2018-05-26T12:46:00.523Z,27.95
2018-05-26T12:48:29.581Z,27.68
2018-05-26T12:50:59.556Z,26.75
2018-05-26T12:53:28.605Z,26.97
2018-05-26T12:55:59.020Z,25.45
2018-05-26T13:01:04.320Z,28.18
2018-05-26T13:03:33.652Z,27.31
2018-05-26T13:06:03.323Z,26.33
2018-05-26T13:08:32.419Z,24.87
2018-05-26T13:11:02.029Z,23.45
2018-05-26T13:13:31.169Z,25.21
2018-05-26T13:16:00.910Z,25.24
2018-05-26T13:21:05.881Z,21.90
2018-05-26T13:23:34.973Z,24.01
2018-05-26T13:26:04.439Z,21.01
2018-05-26T13:28:33.481Z,22.41
2018-05-26T13:31:03.117Z,21.46
2018-05-26T13:36:08.279Z,20.80
2018-05-26T13:41:13.672Z,20.21
2018-05-26T13:43:42.710Z,20.25
2018-05-26T13:46:12.041Z,20.60
2018-05-26T13:48:41.093Z,20.39
2018-05-26T13:51:23.823Z,19.51
2018-05-26T13:54:04.729Z,19.68
2018-05-26T13:56:46.150Z,18.88
2018-05-26T14:02:14.919Z,19.10
2018-05-26T14:07:25.054Z,19.48
2018-05-26T14:12:33.855Z,18.58
2018-05-26T14:15:05.725Z,19.40
2018-05-26T14:17:37.771Z,19.75
2018-05-26T14:20:09.359Z,20.53
2018-05-26T14:22:42.013Z,18.80
2018-05-26T14:25:13.252Z,18.47
2018-05-26T14:27:45.284Z,16.89
2018-05-26T14:30:16.533Z,18.05
2018-05-26T14:32:48.746Z,18.44
2018-05-26T14:35:21.065Z,17.97
2018-05-26T14:37:53.179Z,15.50
2018-05-26T14:40:25.216Z,16.59
2018-05-26T14:42:57.703Z,17.01
2018-05-26T14:45:30.727Z,18.00
2018-05-26T14:50:40.399Z,18.99
2018-05-26T14:53:11.499Z,19.56
2018-05-26T14:55:44.962Z,19.54
2018-05-26T14:58:15.907Z,21.24
2018-05-26T15:00:47.749Z,20.02
2018-05-26T15:03:18.939Z,19.94
2018-05-26T15:05:47.989Z,20.88
2018-05-26T15:08:17.028Z,21.03
2018-05-26T15:10:46.081Z,20.12
2018-05-26T15:13:15.202Z,19.41
2018-05-26T15:15:44.174Z,21.18
2018-05-26T15:18:13.218Z,20.22
2018-05-26T15:20:42.337Z,22.06
2018-05-26T15:23:11.442Z,22.39
2018-05-26T15:25:40.530Z,18.85
2018-05-26T15:28:09.629Z,18.82
2018-05-26T15:30:38.770Z,20.26
2018-05-26T15:33:07.848Z,19.74
2018-05-26T15:35:36.895Z,19.00
2018-05-26T15:38:06.227Z,18.16
2018-05-26T15:40:35.371Z,19.00
2018-05-26T15:43:04.447Z,19.71
2018-05-26T15:48:09.388Z,19.77
2018-05-26T15:50:38.542Z,20.07
2018-05-26T15:53:07.634Z,19.58
2018-05-26T15:55:36.701Z,19.45
2018-05-26T15:58:05.756Z,20.37
2018-05-26T16:03:10.618Z,19.23
2018-05-26T16:05:40.199Z,19.07
2018-05-26T16:08:09.286Z,18.56
2018-05-26T16:10:38.399Z,21.28
2018-05-26T16:13:07.503Z,21.39
2018-05-26T16:15:36.579Z,20.76
2018-05-26T16:18:05.704Z,23.09
2018-05-26T16:20:34.765Z,21.89
2018-05-26T16:25:39.686Z,23.31
2018-05-26T16:28:09.751Z,24.98
2018-05-26T16:30:38.855Z,27.16
2018-05-26T16:33:07.955Z,27.10
2018-05-26T16:35:37.057Z,28.25
2018-05-26T16:38:06.098Z,28.29
2018-05-26T16:40:35.238Z,30.97
2018-05-26T16:43:04.286Z,36.80
2018-05-26T16:45:33.330Z,35.37
2018-05-26T16:48:02.483Z,35.56
2018-05-26T16:50:31.580Z,33.13
2018-05-26T16:53:00.608Z,34.27
2018-05-26T16:55:29.710Z,35.02
2018-05-26T16:57:58.728Z,39.91
2018-05-26T17:00:27.782Z,39.23
2018-05-26T17:02:56.822Z,40.45
2018-05-26T17:05:25.884Z,41.28
2018-05-26T17:07:54.967Z,42.04
2018-05-26T17:10:24.092Z,40.24
2018-05-26T17:12:53.214Z,42.46
2018-05-26T17:15:22.266Z,40.85
2018-05-26T17:17:51.370Z,43.99
2018-05-26T17:22:56.736Z,41.82
2018-05-26T17:28:01.605Z,40.67
2018-05-26T17:30:30.662Z,40.29
2018-05-26T17:32:59.716Z,44.47
2018-05-26T17:35:28.757Z,42.56
2018-05-26T17:37:57.825Z,43.26
2018-05-26T17:40:26.879Z,44.94
2018-05-26T17:42:55.924Z,44.80
2018-05-26T17:45:24.961Z,44.65
2018-05-26T17:47:54.005Z,46.13
2018-05-26T17:50:23.061Z,46.05
2018-05-26T17:52:52.098Z,49.45
2018-05-26T17:55:21.153Z,47.01
2018-05-26T17:57:50.199Z,49.32
2018-05-26T18:00:19.601Z,49.67
2018-05-26T18:02:49.534Z,47.77
2018-05-26T18:05:19.377Z,47.49
2018-05-26T18:07:48.394Z,47.69
2018-05-26T18:10:18.766Z,49.17
2018-05-26T18:12:47.811Z,50.26
2018-05-26T18:15:18.120Z,50.12
2018-05-26T18:17:47.189Z,51.14
2018-05-26T18:20:16.490Z,50.04
2018-05-26T18:22:45.517Z,52.48
2018-05-26T18:25:14.783Z,56.99
2018-05-26T18:27:43.843Z,52.21
2018-05-26T18:30:12.891Z,54.83
2018-05-26T18:32:41.992Z,53.90
2018-05-26T18:35:11.001Z,52.30
2018-05-26T18:37:40.054Z,54.91
2018-05-26T18:40:09.542Z,60.62
2018-05-26T18:47:50.396Z,58.92
2018-05-26T18:50:21.798Z,58.24
2018-05-26T18:52:50.890Z,58.31
2018-05-26T18:55:20.920Z,60.47
2018-05-26T18:57:49.998Z,64.93
2018-05-26T19:00:20.803Z,68.97
2018-05-26T19:02:49.856Z,65.78
2018-05-26T19:07:55.673Z,65.07
2018-05-26T19:10:27.875Z,70.15
2018-05-26T19:12:56.938Z,64.05
2018-05-26T19:20:56.566Z,71.65
2018-05-26T19:23:25.772Z,72.81
2018-05-26T19:25:54.831Z,71.35
2018-05-26T19:28:28.740Z,70.40
2018-05-26T19:30:57.878Z,69.93
2018-05-26T19:33:27.118Z,67.53
2018-05-26T19:35:56.244Z,68.15
2018-05-26T19:38:32.105Z,70.57
2018-05-26T19:41:18.320Z,69.58
2018-05-26T19:43:55.973Z,68.75
2018-05-26T19:46:47.023Z,70.27
2018-05-26T19:49:28.004Z,68.51
2018-05-26T19:52:19.774Z,70.19
2018-05-26T19:55:01.237Z,73.79
2018-05-26T19:57:51.903Z,69.78
2018-05-26T20:00:35.666Z,72.02
2018-05-26T20:05:50.295Z,74.09
2018-05-26T20:13:50.502Z,78.36
2018-05-26T20:16:30.589Z,79.99
2018-05-26T20:19:12.258Z,76.85
2018-05-26T20:21:53.214Z,75.33
2018-05-26T20:24:41.227Z,73.82
2018-05-26T20:30:00.289Z,74.25
2018-05-26T20:32:46.261Z,75.31
2018-05-26T20:35:23.352Z,77.42
2018-05-26T20:38:00.028Z,76.61
2018-05-26T20:40:36.592Z,75.65
2018-05-26T20:45:52.144Z,77.24
2018-05-26T20:51:26.312Z,76.00
2018-05-26T20:54:09.856Z,77.62
2018-05-26T20:56:51.791Z,78.62
2018-05-26T20:59:31.129Z,77.86
2018-05-26T21:02:13.716Z,77.60
2018-05-26T21:04:57.840Z,79.11
2018-05-26T21:07:41.435Z,77.59
2018-05-26T21:10:10.739Z,76.53
2018-05-26T21:12:39.946Z,77.50
2018-05-26T21:15:11.285Z,79.00
2018-05-26T21:17:40.319Z,85.31
2018-05-26T21:20:09.436Z,82.52
2018-05-26T21:25:19.910Z,78.73
2018-05-26T21:27:49.944Z,83.30
2018-05-26T21:30:29.397Z,87.83
2018-05-26T21:32:58.935Z,85.28
2018-05-26T21:35:37.244Z,81.06
2018-05-26T21:38:10.085Z,80.01
2018-05-26T21:40:39.434Z,83.13
2018-05-26T21:43:08.868Z,81.82
2018-05-26T21:45:39.851Z,87.50
2018-05-26T21:48:12.531Z,86.46
2018-05-26T21:50:41.763Z,83.53
2018-05-26T21:53:11.077Z,86.30
2018-05-26T21:55:40.269Z,88.26
2018-05-26T22:00:45.641Z,86.99
2018-05-26T22:05:51.043Z,86.50
2018-05-26T22:08:20.054Z,86.75
2018-05-26T22:10:49.129Z,88.11
2018-05-26T22:13:36.185Z,87.21
2018-05-26T22:16:05.262Z,85.57
2018-05-26T22:18:35.281Z,86.17
2018-05-26T22:21:04.349Z,86.36
2018-05-26T22:23:36.874Z,84.81
2018-05-26T22:26:05.920Z,86.81
2018-05-26T22:28:40.657Z,86.41
2018-05-26T22:31:09.732Z,85.96
2018-05-26T22:36:14.770Z,84.49
2018-05-26T22:38:45.950Z,84.73
2018-05-26T22:41:15.126Z,86.36
2018-05-26T22:44:02.658Z,86.16
2018-05-26T22:46:31.741Z,87.02
2018-05-26T22:49:00.830Z,86.51
2018-05-26T22:54:06.125Z,84.95
2018-05-26T22:56:35.575Z,84.16
2018-05-26T22:59:04.618Z,85.91
2018-05-26T23:01:33.687Z,85.35
2018-05-26T23:04:02.765Z,85.38
2018-05-26T23:06:32.750Z,84.10
2018-05-26T23:09:01.831Z,85.70
2018-05-26T23:11:30.923Z,85.18
2018-05-26T23:14:00.931Z,89.52
2018-05-26T23:16:33.307Z,88.77
2018-05-26T23:19:02.360Z,91.88
2018-05-26T23:21:40.246Z,91.42
2018-05-26T23:24:09.331Z,88.82
2018-05-26T23:26:42.006Z,91.83
2018-05-26T23:29:11.091Z,89.09
2018-05-26T23:34:16.550Z,90.68
2018-05-26T23:36:51.069Z,91.88
2018-05-26T23:39:21.470Z,90.52
2018-05-26T23:41:51.443Z,90.17
2018-05-26T23:44:25.981Z,90.63
2018-05-26T23:46:55.085Z,92.67
2018-05-26T23:49:26.001Z,93.71
2018-05-26T23:54:36.286Z,88.76
2018-05-26T23:57:05.337Z,89.80
2018-05-26T23:59:35.321Z,88.86
